sensor_id;sensor_type;location;lat;lon;timestamp;P1;durP1;ratioP1;P2;durP2;ratioP2
35917;SDS011;22011;59.912;30.300;2022-12-07T00:01:58;11.88;;;6.45;;
35917;SDS011;22011;59.912;30.300;2022-12-07T00:04:25;11.90;;;7.50;;
35917;SDS011;22011;59.912;30.300;2022-12-07T00:06:53;16.38;;;8.13;;
35917;SDS011;22011;59.912;30.300;2022-12-07T00:09:22;14.20;;;7.97;;
35917;SDS011;22011;59.912;30.300;2022-12-07T00:11:49;13.68;;;7.88;;
35917;SDS011;22011;59.912;30.300;2022-12-07T00:14:18;14.30;;;8.13;;
35917;SDS011;22011;59.912;30.300;2022-12-07T00:16:46;15.00;;;7.70;;
35917;SDS011;22011;59.912;30.300;2022-12-07T00:19:16;11.70;;;6.70;;
35917;SDS011;22011;59.912;30.300;2022-12-07T00:21:43;17.52;;;7.18;;
35917;SDS011;22011;59.912;30.300;2022-12-07T00:24:11;13.50;;;7.57;;
35917;SDS011;22011;59.912;30.300;2022-12-07T00:26:41;12.50;;;7.57;;
35917;SDS011;22011;59.912;30.300;2022-12-07T00:29:11;14.95;;;8.10;;
35917;SDS011;22011;59.912;30.300;2022-12-07T00:31:41;16.33;;;10.05;;
35917;SDS011;22011;59.912;30.300;2022-12-07T00:34:11;13.25;;;7.90;;
35917;SDS011;22011;59.912;30.300;2022-12-07T00:36:40;10.63;;;7.97;;
35917;SDS011;22011;59.912;30.300;2022-12-07T00:39:08;12.82;;;7.68;;
35917;SDS011;22011;59.912;30.300;2022-12-07T00:41:35;11.00;;;7.63;;
35917;SDS011;22011;59.912;30.300;2022-12-07T00:44:04;13.32;;;7.65;;
35917;SDS011;22011;59.912;30.300;2022-12-07T00:46:32;10.93;;;7.30;;
35917;SDS011;22011;59.912;30.300;2022-12-07T00:48:59;9.20;;;6.45;;
35917;SDS011;22011;59.912;30.300;2022-12-07T00:51:27;11.82;;;7.97;;
35917;SDS011;22011;59.912;30.300;2022-12-07T00:53:54;13.95;;;7.63;;
35917;SDS011;22011;59.912;30.300;2022-12-07T00:56:22;11.85;;;7.63;;
35917;SDS011;22011;59.912;30.300;2022-12-07T00:58:52;10.67;;;7.03;;
35917;SDS011;22011;59.912;30.300;2022-12-07T01:01:23;13.15;;;7.32;;
35917;SDS011;22011;59.912;30.300;2022-12-07T01:03:51;12.50;;;7.00;;
35917;SDS011;22011;59.912;30.300;2022-12-07T01:06:19;10.20;;;7.10;;
35917;SDS011;22011;59.912;30.300;2022-12-07T01:08:48;11.18;;;7.10;;
35917;SDS011;22011;59.912;30.300;2022-12-07T01:11:17;8.20;;;6.10;;
35917;SDS011;22011;59.912;30.300;2022-12-07T01:13:46;11.73;;;6.47;;
35917;SDS011;22011;59.912;30.300;2022-12-07T01:16:14;9.00;;;6.15;;
35917;SDS011;22011;59.912;30.300;2022-12-07T01:18:45;10.52;;;6.95;;
35917;SDS011;22011;59.912;30.300;2022-12-07T01:21:14;11.02;;;6.55;;
35917;SDS011;22011;59.912;30.300;2022-12-07T01:23:43;9.23;;;5.78;;
35917;SDS011;22011;59.912;30.300;2022-12-07T01:26:12;10.75;;;6.13;;
35917;SDS011;22011;59.912;30.300;2022-12-07T01:28:42;9.90;;;6.20;;
35917;SDS011;22011;59.912;30.300;2022-12-07T01:31:11;11.05;;;6.93;;
35917;SDS011;22011;59.912;30.300;2022-12-07T01:33:41;13.32;;;6.65;;
35917;SDS011;22011;59.912;30.300;2022-12-07T01:36:15;9.45;;;6.28;;
35917;SDS011;22011;59.912;30.300;2022-12-07T01:38:43;9.70;;;6.30;;
35917;SDS011;22011;59.912;30.300;2022-12-07T01:41:12;11.05;;;6.07;;
35917;SDS011;22011;59.912;30.300;2022-12-07T01:44:06;10.55;;;5.88;;
35917;SDS011;22011;59.912;30.300;2022-12-07T01:46:37;10.00;;;6.05;;
35917;SDS011;22011;59.912;30.300;2022-12-07T01:49:04;9.25;;;6.00;;
35917;SDS011;22011;59.912;30.300;2022-12-07T01:51:37;11.23;;;6.20;;
35917;SDS011;22011;59.912;30.300;2022-12-07T01:54:07;12.75;;;6.93;;
35917;SDS011;22011;59.912;30.300;2022-12-07T01:56:36;10.55;;;7.10;;
35917;SDS011;22011;59.912;30.300;2022-12-07T01:59:05;10.82;;;6.10;;
35917;SDS011;22011;59.912;30.300;2022-12-07T02:01:33;10.40;;;5.85;;
35917;SDS011;22011;59.912;30.300;2022-12-07T02:04:00;9.70;;;5.78;;
35917;SDS011;22011;59.912;30.300;2022-12-07T02:06:28;9.27;;;5.93;;
35917;SDS011;22011;59.912;30.300;2022-12-07T02:08:58;11.27;;;5.72;;
35917;SDS011;22011;59.912;30.300;2022-12-07T02:11:25;10.23;;;6.43;;
35917;SDS011;22011;59.912;30.300;2022-12-07T02:13:53;8.95;;;5.65;;
35917;SDS011;22011;59.912;30.300;2022-12-07T02:16:24;10.75;;;7.20;;
35917;SDS011;22011;59.912;30.300;2022-12-07T02:19:03;8.65;;;5.95;;
35917;SDS011;22011;59.912;30.300;2022-12-07T02:21:52;9.98;;;6.20;;
35917;SDS011;22011;59.912;30.300;2022-12-07T02:24:34;9.10;;;6.15;;
35917;SDS011;22011;59.912;30.300;2022-12-07T02:30:06;8.43;;;5.00;;
35917;SDS011;22011;59.912;30.300;2022-12-07T02:32:39;7.75;;;4.78;;
35917;SDS011;22011;59.912;30.300;2022-12-07T02:35:11;9.57;;;5.28;;
35917;SDS011;22011;59.912;30.300;2022-12-07T02:37:48;8.55;;;5.18;;
35917;SDS011;22011;59.912;30.300;2022-12-07T02:40:25;8.90;;;5.22;;
35917;SDS011;22011;59.912;30.300;2022-12-07T02:42:58;9.90;;;6.28;;
35917;SDS011;22011;59.912;30.300;2022-12-07T02:45:31;11.20;;;6.55;;
35917;SDS011;22011;59.912;30.300;2022-12-07T02:48:01;8.02;;;5.55;;
35917;SDS011;22011;59.912;30.300;2022-12-07T02:50:30;9.70;;;5.38;;
35917;SDS011;22011;59.912;30.300;2022-12-07T02:52:58;7.20;;;4.88;;
35917;SDS011;22011;59.912;30.300;2022-12-07T02:55:27;7.32;;;4.80;;
35917;SDS011;22011;59.912;30.300;2022-12-07T02:58:06;9.45;;;5.38;;
35917;SDS011;22011;59.912;30.300;2022-12-07T03:00:48;7.60;;;5.00;;
35917;SDS011;22011;59.912;30.300;2022-12-07T03:03:22;8.55;;;4.80;;
35917;SDS011;22011;59.912;30.300;2022-12-07T03:05:58;8.38;;;4.78;;
35917;SDS011;22011;59.912;30.300;2022-12-07T03:08:39;9.35;;;4.63;;
35917;SDS011;22011;59.912;30.300;2022-12-07T03:11:13;9.38;;;5.75;;
35917;SDS011;22011;59.912;30.300;2022-12-07T03:13:45;6.95;;;4.43;;
35917;SDS011;22011;59.912;30.300;2022-12-07T03:16:20;8.63;;;5.60;;
35917;SDS011;22011;59.912;30.300;2022-12-07T03:18:50;7.97;;;4.72;;
35917;SDS011;22011;59.912;30.300;2022-12-07T03:21:22;7.50;;;5.00;;
35917;SDS011;22011;59.912;30.300;2022-12-07T03:23:55;7.25;;;5.35;;
35917;SDS011;22011;59.912;30.300;2022-12-07T03:26:28;9.02;;;4.95;;
35917;SDS011;22011;59.912;30.300;2022-12-07T03:28:59;8.70;;;5.05;;
35917;SDS011;22011;59.912;30.300;2022-12-07T03:31:33;7.40;;;4.43;;
35917;SDS011;22011;59.912;30.300;2022-12-07T03:34:06;7.55;;;5.15;;
35917;SDS011;22011;59.912;30.300;2022-12-07T03:36:38;9.95;;;5.22;;
35917;SDS011;22011;59.912;30.300;2022-12-07T03:39:12;8.77;;;5.25;;
35917;SDS011;22011;59.912;30.300;2022-12-07T03:41:48;8.13;;;4.65;;
35917;SDS011;22011;59.912;30.300;2022-12-07T03:44:17;8.85;;;5.65;;
35917;SDS011;22011;59.912;30.300;2022-12-07T03:46:49;9.15;;;5.30;;
35917;SDS011;22011;59.912;30.300;2022-12-07T03:49:25;7.43;;;4.82;;
35917;SDS011;22011;59.912;30.300;2022-12-07T03:52:00;8.23;;;4.90;;
35917;SDS011;22011;59.912;30.300;2022-12-07T03:54:36;8.98;;;5.47;;
35917;SDS011;22011;59.912;30.300;2022-12-07T03:57:08;9.38;;;4.97;;
35917;SDS011;22011;59.912;30.300;2022-12-07T03:59:37;9.52;;;5.25;;
35917;SDS011;22011;59.912;30.300;2022-12-07T04:02:07;7.63;;;4.65;;
35917;SDS011;22011;59.912;30.300;2022-12-07T04:04:39;7.68;;;4.82;;
35917;SDS011;22011;59.912;30.300;2022-12-07T04:07:08;9.63;;;5.25;;
35917;SDS011;22011;59.912;30.300;2022-12-07T04:09:36;7.03;;;4.72;;
35917;SDS011;22011;59.912;30.300;2022-12-07T04:12:04;9.55;;;4.97;;
35917;SDS011;22011;59.912;30.300;2022-12-07T04:14:31;9.40;;;5.85;;
35917;SDS011;22011;59.912;30.300;2022-12-07T04:16:59;9.00;;;5.10;;
35917;SDS011;22011;59.912;30.300;2022-12-07T04:19:29;7.10;;;4.88;;
35917;SDS011;22011;59.912;30.300;2022-12-07T04:21:58;6.68;;;4.65;;
35917;SDS011;22011;59.912;30.300;2022-12-07T04:24:30;8.65;;;4.65;;
35917;SDS011;22011;59.912;30.300;2022-12-07T04:26:58;12.30;;;5.47;;
35917;SDS011;22011;59.912;30.300;2022-12-07T04:29:25;7.47;;;4.88;;
35917;SDS011;22011;59.912;30.300;2022-12-07T04:31:53;6.97;;;4.53;;
35917;SDS011;22011;59.912;30.300;2022-12-07T04:34:21;7.20;;;4.70;;
35917;SDS011;22011;59.912;30.300;2022-12-07T04:36:49;6.00;;;4.38;;
35917;SDS011;22011;59.912;30.300;2022-12-07T04:39:18;7.85;;;4.88;;
35917;SDS011;22011;59.912;30.300;2022-12-07T04:41:47;8.52;;;4.30;;
35917;SDS011;22011;59.912;30.300;2022-12-07T04:44:16;8.30;;;4.85;;
35917;SDS011;22011;59.912;30.300;2022-12-07T04:46:44;7.95;;;4.93;;
35917;SDS011;22011;59.912;30.300;2022-12-07T04:49:12;7.55;;;4.95;;
35917;SDS011;22011;59.912;30.300;2022-12-07T04:51:40;8.38;;;5.35;;
35917;SDS011;22011;59.912;30.300;2022-12-07T04:54:10;10.82;;;5.05;;
35917;SDS011;22011;59.912;30.300;2022-12-07T04:56:38;6.80;;;5.27;;
35917;SDS011;22011;59.912;30.300;2022-12-07T04:59:06;8.70;;;5.00;;
35917;SDS011;22011;59.912;30.300;2022-12-07T05:01:34;6.53;;;4.35;;
35917;SDS011;22011;59.912;30.300;2022-12-07T05:04:01;8.10;;;4.82;;
35917;SDS011;22011;59.912;30.300;2022-12-07T05:06:30;8.30;;;4.82;;
35917;SDS011;22011;59.912;30.300;2022-12-07T05:08:57;8.52;;;5.30;;
35917;SDS011;22011;59.912;30.300;2022-12-07T05:11:26;9.80;;;5.60;;
35917;SDS011;22011;59.912;30.300;2022-12-07T05:14:06;11.80;;;5.85;;
35917;SDS011;22011;59.912;30.300;2022-12-07T05:16:36;10.52;;;5.13;;
35917;SDS011;22011;59.912;30.300;2022-12-07T05:19:04;12.50;;;5.03;;
35917;SDS011;22011;59.912;30.300;2022-12-07T05:21:31;11.45;;;5.45;;
35917;SDS011;22011;59.912;30.300;2022-12-07T05:23:59;11.38;;;6.03;;
35917;SDS011;22011;59.912;30.300;2022-12-07T05:26:28;9.02;;;5.15;;
35917;SDS011;22011;59.912;30.300;2022-12-07T05:28:56;10.32;;;6.07;;
35917;SDS011;22011;59.912;30.300;2022-12-07T05:31:24;7.95;;;5.30;;
35917;SDS011;22011;59.912;30.300;2022-12-07T05:33:53;9.20;;;5.70;;
35917;SDS011;22011;59.912;30.300;2022-12-07T05:36:20;10.32;;;6.55;;
35917;SDS011;22011;59.912;30.300;2022-12-07T05:38:48;10.52;;;6.78;;
35917;SDS011;22011;59.912;30.300;2022-12-07T05:41:16;11.13;;;6.32;;
35917;SDS011;22011;59.912;30.300;2022-12-07T05:44:04;9.93;;;5.85;;
35917;SDS011;22011;59.912;30.300;2022-12-07T05:46:32;12.47;;;6.03;;
35917;SDS011;22011;59.912;30.300;2022-12-07T05:48:59;14.05;;;6.15;;
35917;SDS011;22011;59.912;30.300;2022-12-07T05:51:27;13.35;;;5.78;;
35917;SDS011;22011;59.912;30.300;2022-12-07T05:53:55;9.57;;;5.45;;
35917;SDS011;22011;59.912;30.300;2022-12-07T05:56:24;11.55;;;5.53;;
35917;SDS011;22011;59.912;30.300;2022-12-07T05:58:52;11.50;;;5.65;;
35917;SDS011;22011;59.912;30.300;2022-12-07T06:01:38;10.35;;;5.78;;
35917;SDS011;22011;59.912;30.300;2022-12-07T06:04:06;10.60;;;6.07;;
35917;SDS011;22011;59.912;30.300;2022-12-07T06:06:33;8.70;;;5.05;;
35917;SDS011;22011;59.912;30.300;2022-12-07T06:09:01;9.32;;;5.13;;
35917;SDS011;22011;59.912;30.300;2022-12-07T06:11:29;9.23;;;5.32;;
35917;SDS011;22011;59.912;30.300;2022-12-07T06:14:29;8.80;;;5.20;;
35917;SDS011;22011;59.912;30.300;2022-12-07T06:16:58;12.15;;;4.80;;
35917;SDS011;22011;59.912;30.300;2022-12-07T06:19:25;9.10;;;5.60;;
35917;SDS011;22011;59.912;30.300;2022-12-07T06:21:53;12.57;;;5.68;;
35917;SDS011;22011;59.912;30.300;2022-12-07T06:24:21;10.02;;;4.80;;
35917;SDS011;22011;59.912;30.300;2022-12-07T06:26:48;15.57;;;5.00;;
35917;SDS011;22011;59.912;30.300;2022-12-07T06:29:16;9.82;;;5.32;;
35917;SDS011;22011;59.912;30.300;2022-12-07T06:31:45;8.95;;;4.72;;
35917;SDS011;22011;59.912;30.300;2022-12-07T06:34:15;12.88;;;7.53;;
35917;SDS011;22011;59.912;30.300;2022-12-07T06:36:43;11.70;;;6.45;;
35917;SDS011;22011;59.912;30.300;2022-12-07T06:39:11;8.95;;;4.70;;
35917;SDS011;22011;59.912;30.300;2022-12-07T06:41:39;8.05;;;5.05;;
35917;SDS011;22011;59.912;30.300;2022-12-07T06:44:06;13.60;;;5.10;;
35917;SDS011;22011;59.912;30.300;2022-12-07T06:46:34;8.50;;;4.95;;
35917;SDS011;22011;59.912;30.300;2022-12-07T06:49:02;11.05;;;5.40;;
35917;SDS011;22011;59.912;30.300;2022-12-07T06:51:31;10.32;;;4.22;;
35917;SDS011;22011;59.912;30.300;2022-12-07T06:54:01;7.57;;;5.47;;
35917;SDS011;22011;59.912;30.300;2022-12-07T06:56:28;11.05;;;5.70;;
35917;SDS011;22011;59.912;30.300;2022-12-07T06:58:56;7.50;;;4.68;;
35917;SDS011;22011;59.912;30.300;2022-12-07T07:01:23;9.93;;;4.35;;
35917;SDS011;22011;59.912;30.300;2022-12-07T07:03:51;9.38;;;4.80;;
35917;SDS011;22011;59.912;30.300;2022-12-07T07:06:18;11.48;;;5.85;;
35917;SDS011;22011;59.912;30.300;2022-12-07T07:08:47;8.48;;;4.68;;
35917;SDS011;22011;59.912;30.300;2022-12-07T07:11:14;7.75;;;4.90;;
35917;SDS011;22011;59.912;30.300;2022-12-07T07:13:42;9.68;;;4.00;;
35917;SDS011;22011;59.912;30.300;2022-12-07T07:16:09;9.43;;;4.40;;
35917;SDS011;22011;59.912;30.300;2022-12-07T07:18:37;9.43;;;4.97;;
35917;SDS011;22011;59.912;30.300;2022-12-07T07:21:04;10.63;;;4.20;;
35917;SDS011;22011;59.912;30.300;2022-12-07T07:23:32;13.40;;;4.63;;
35917;SDS011;22011;59.912;30.300;2022-12-07T07:26:01;9.85;;;4.13;;
35917;SDS011;22011;59.912;30.300;2022-12-07T07:28:28;7.40;;;4.38;;
35917;SDS011;22011;59.912;30.300;2022-12-07T07:30:56;8.70;;;4.30;;
35917;SDS011;22011;59.912;30.300;2022-12-07T07:33:23;6.82;;;3.47;;
35917;SDS011;22011;59.912;30.300;2022-12-07T07:35:51;7.03;;;3.65;;
35917;SDS011;22011;59.912;30.300;2022-12-07T07:38:18;6.78;;;3.70;;
35917;SDS011;22011;59.912;30.300;2022-12-07T07:40:46;9.73;;;4.25;;
35917;SDS011;22011;59.912;30.300;2022-12-07T07:43:15;8.73;;;3.97;;
35917;SDS011;22011;59.912;30.300;2022-12-07T07:45:42;6.93;;;4.20;;
35917;SDS011;22011;59.912;30.300;2022-12-07T07:48:11;8.30;;;4.15;;
35917;SDS011;22011;59.912;30.300;2022-12-07T07:50:38;11.05;;;4.00;;
35917;SDS011;22011;59.912;30.300;2022-12-07T07:53:06;13.27;;;3.88;;
35917;SDS011;22011;59.912;30.300;2022-12-07T07:55:34;11.77;;;4.13;;
35917;SDS011;22011;59.912;30.300;2022-12-07T07:58:01;7.88;;;4.10;;
35917;SDS011;22011;59.912;30.300;2022-12-07T08:00:30;8.80;;;4.35;;
35917;SDS011;22011;59.912;30.300;2022-12-07T08:02:58;7.93;;;4.03;;
35917;SDS011;22011;59.912;30.300;2022-12-07T08:05:25;14.93;;;4.60;;
35917;SDS011;22011;59.912;30.300;2022-12-07T08:07:53;10.85;;;3.95;;
35917;SDS011;22011;59.912;30.300;2022-12-07T08:10:20;7.88;;;4.25;;
35917;SDS011;22011;59.912;30.300;2022-12-07T08:12:48;7.65;;;3.65;;
35917;SDS011;22011;59.912;30.300;2022-12-07T08:15:36;6.85;;;4.15;;
35917;SDS011;22011;59.912;30.300;2022-12-07T08:18:04;5.82;;;4.03;;
35917;SDS011;22011;59.912;30.300;2022-12-07T08:20:33;7.13;;;3.88;;
35917;SDS011;22011;59.912;30.300;2022-12-07T08:23:01;16.83;;;4.57;;
35917;SDS011;22011;59.912;30.300;2022-12-07T08:25:29;6.43;;;3.83;;
35917;SDS011;22011;59.912;30.300;2022-12-07T08:27:57;11.43;;;3.92;;
35917;SDS011;22011;59.912;30.300;2022-12-07T08:30:26;6.43;;;3.88;;
35917;SDS011;22011;59.912;30.300;2022-12-07T08:32:55;7.35;;;3.55;;
35917;SDS011;22011;59.912;30.300;2022-12-07T08:35:23;10.90;;;4.27;;
35917;SDS011;22011;59.912;30.300;2022-12-07T08:37:51;9.68;;;4.35;;
35917;SDS011;22011;59.912;30.300;2022-12-07T08:40:18;7.65;;;4.40;;
35917;SDS011;22011;59.912;30.300;2022-12-07T08:42:48;9.05;;;3.70;;
35917;SDS011;22011;59.912;30.300;2022-12-07T08:45:17;6.68;;;3.83;;
35917;SDS011;22011;59.912;30.300;2022-12-07T08:47:46;12.93;;;4.80;;
35917;SDS011;22011;59.912;30.300;2022-12-07T08:50:19;7.30;;;4.00;;
35917;SDS011;22011;59.912;30.300;2022-12-07T08:52:48;8.90;;;5.15;;
35917;SDS011;22011;59.912;30.300;2022-12-07T08:55:18;9.23;;;4.22;;
35917;SDS011;22011;59.912;30.300;2022-12-07T08:57:46;12.18;;;4.40;;
35917;SDS011;22011;59.912;30.300;2022-12-07T09:00:14;8.90;;;4.10;;
35917;SDS011;22011;59.912;30.300;2022-12-07T09:02:43;11.63;;;3.85;;
35917;SDS011;22011;59.912;30.300;2022-12-07T09:05:11;10.82;;;4.32;;
35917;SDS011;22011;59.912;30.300;2022-12-07T09:07:42;14.35;;;4.13;;
35917;SDS011;22011;59.912;30.300;2022-12-07T09:10:11;6.68;;;4.50;;
35917;SDS011;22011;59.912;30.300;2022-12-07T09:12:38;10.05;;;4.18;;
35917;SDS011;22011;59.912;30.300;2022-12-07T09:15:07;8.52;;;4.28;;
35917;SDS011;22011;59.912;30.300;2022-12-07T09:17:35;11.77;;;4.85;;
35917;SDS011;22011;59.912;30.300;2022-12-07T09:20:03;7.00;;;4.15;;
35917;SDS011;22011;59.912;30.300;2022-12-07T09:22:32;11.10;;;4.90;;
35917;SDS011;22011;59.912;30.300;2022-12-07T09:25:02;10.82;;;5.25;;
35917;SDS011;22011;59.912;30.300;2022-12-07T09:27:31;9.35;;;4.68;;
35917;SDS011;22011;59.912;30.300;2022-12-07T09:29:58;8.82;;;4.75;;
35917;SDS011;22011;59.912;30.300;2022-12-07T09:32:26;8.57;;;4.03;;
35917;SDS011;22011;59.912;30.300;2022-12-07T09:34:53;13.27;;;5.78;;
35917;SDS011;22011;59.912;30.300;2022-12-07T09:37:21;8.27;;;4.53;;
35917;SDS011;22011;59.912;30.300;2022-12-07T09:39:48;6.43;;;4.38;;
35917;SDS011;22011;59.912;30.300;2022-12-07T09:42:27;10.43;;;3.90;;
35917;SDS011;22011;59.912;30.300;2022-12-07T09:44:57;8.90;;;4.22;;
35917;SDS011;22011;59.912;30.300;2022-12-07T09:47:26;9.07;;;3.38;;
35917;SDS011;22011;59.912;30.300;2022-12-07T09:49:54;8.77;;;4.40;;
35917;SDS011;22011;59.912;30.300;2022-12-07T09:52:27;6.38;;;3.70;;
35917;SDS011;22011;59.912;30.300;2022-12-07T09:54:56;6.47;;;3.55;;
35917;SDS011;22011;59.912;30.300;2022-12-07T09:57:27;15.90;;;4.45;;
35917;SDS011;22011;59.912;30.300;2022-12-07T09:59:57;8.02;;;4.07;;
35917;SDS011;22011;59.912;30.300;2022-12-07T10:02:35;10.45;;;4.10;;
35917;SDS011;22011;59.912;30.300;2022-12-07T10:05:05;7.78;;;4.13;;
35917;SDS011;22011;59.912;30.300;2022-12-07T10:07:34;6.97;;;5.05;;
35917;SDS011;22011;59.912;30.300;2022-12-07T10:10:03;7.35;;;3.58;;
35917;SDS011;22011;59.912;30.300;2022-12-07T10:12:33;12.68;;;4.07;;
35917;SDS011;22011;59.912;30.300;2022-12-07T10:15:19;6.30;;;3.58;;
35917;SDS011;22011;59.912;30.300;2022-12-07T10:17:47;8.10;;;3.95;;
35917;SDS011;22011;59.912;30.300;2022-12-07T10:20:18;10.97;;;3.43;;
35917;SDS011;22011;59.912;30.300;2022-12-07T10:22:54;7.43;;;3.80;;
35917;SDS011;22011;59.912;30.300;2022-12-07T10:25:25;9.90;;;4.03;;
35917;SDS011;22011;59.912;30.300;2022-12-07T10:27:59;7.45;;;4.18;;
35917;SDS011;22011;59.912;30.300;2022-12-07T10:30:29;12.23;;;4.18;;
35917;SDS011;22011;59.912;30.300;2022-12-07T10:32:58;6.75;;;3.67;;
35917;SDS011;22011;59.912;30.300;2022-12-07T10:35:27;6.90;;;3.80;;
35917;SDS011;22011;59.912;30.300;2022-12-07T10:37:56;5.85;;;3.45;;
35917;SDS011;22011;59.912;30.300;2022-12-07T10:40:29;7.43;;;4.05;;
35917;SDS011;22011;59.912;30.300;2022-12-07T10:43:02;9.68;;;3.95;;
35917;SDS011;22011;59.912;30.300;2022-12-07T10:45:31;7.28;;;4.15;;
35917;SDS011;22011;59.912;30.300;2022-12-07T10:50:38;4.88;;;3.20;;
35917;SDS011;22011;59.912;30.300;2022-12-07T10:53:25;5.97;;;3.78;;
35917;SDS011;22011;59.912;30.300;2022-12-07T10:56:03;5.35;;;3.53;;
35917;SDS011;22011;59.912;30.300;2022-12-07T10:58:49;9.45;;;3.58;;
35917;SDS011;22011;59.912;30.300;2022-12-07T11:01:25;8.88;;;3.40;;
35917;SDS011;22011;59.912;30.300;2022-12-07T11:04:10;5.72;;;3.50;;
35917;SDS011;22011;59.912;30.300;2022-12-07T11:06:51;9.00;;;4.25;;
35917;SDS011;22011;59.912;30.300;2022-12-07T11:09:35;7.55;;;3.38;;
35917;SDS011;22011;59.912;30.300;2022-12-07T11:12:21;10.27;;;3.35;;
35917;SDS011;22011;59.912;30.300;2022-12-07T11:15:08;9.65;;;4.00;;
35917;SDS011;22011;59.912;30.300;2022-12-07T11:17:45;16.45;;;3.95;;
35917;SDS011;22011;59.912;30.300;2022-12-07T11:20:24;7.00;;;3.58;;
35917;SDS011;22011;59.912;30.300;2022-12-07T11:23:03;5.45;;;3.30;;
35917;SDS011;22011;59.912;30.300;2022-12-07T11:25:38;7.38;;;3.38;;
35917;SDS011;22011;59.912;30.300;2022-12-07T11:28:15;8.98;;;3.55;;
35917;SDS011;22011;59.912;30.300;2022-12-07T11:30:56;6.03;;;3.15;;
35917;SDS011;22011;59.912;30.300;2022-12-07T11:33:32;5.82;;;3.50;;
35917;SDS011;22011;59.912;30.300;2022-12-07T11:36:05;7.50;;;3.67;;
35917;SDS011;22011;59.912;30.300;2022-12-07T11:38:45;9.57;;;4.03;;
35917;SDS011;22011;59.912;30.300;2022-12-07T11:41:17;8.50;;;3.88;;
35917;SDS011;22011;59.912;30.300;2022-12-07T11:43:54;5.78;;;3.40;;
35917;SDS011;22011;59.912;30.300;2022-12-07T11:46:28;14.05;;;5.05;;
35917;SDS011;22011;59.912;30.300;2022-12-07T11:49:12;9.25;;;3.72;;
35917;SDS011;22011;59.912;30.300;2022-12-07T11:51:47;14.15;;;4.00;;
35917;SDS011;22011;59.912;30.300;2022-12-07T11:54:19;16.90;;;3.92;;
35917;SDS011;22011;59.912;30.300;2022-12-07T11:56:51;11.88;;;3.88;;
35917;SDS011;22011;59.912;30.300;2022-12-07T11:59:23;9.93;;;3.85;;
35917;SDS011;22011;59.912;30.300;2022-12-07T12:01:59;8.18;;;3.90;;
35917;SDS011;22011;59.912;30.300;2022-12-07T12:04:41;8.80;;;3.80;;
35917;SDS011;22011;59.912;30.300;2022-12-07T12:07:17;9.52;;;4.32;;
35917;SDS011;22011;59.912;30.300;2022-12-07T12:09:49;6.82;;;3.75;;
35917;SDS011;22011;59.912;30.300;2022-12-07T12:12:32;9.88;;;4.13;;
35917;SDS011;22011;59.912;30.300;2022-12-07T12:15:20;12.88;;;4.03;;
35917;SDS011;22011;59.912;30.300;2022-12-07T12:21:00;7.25;;;4.10;;
35917;SDS011;22011;59.912;30.300;2022-12-07T12:23:35;8.70;;;3.95;;
35917;SDS011;22011;59.912;30.300;2022-12-07T12:26:07;15.73;;;5.38;;
35917;SDS011;22011;59.912;30.300;2022-12-07T12:28:49;11.48;;;5.80;;
35917;SDS011;22011;59.912;30.300;2022-12-07T12:31:30;14.50;;;6.05;;
35917;SDS011;22011;59.912;30.300;2022-12-07T12:34:04;15.13;;;3.88;;
35917;SDS011;22011;59.912;30.300;2022-12-07T12:36:56;10.13;;;4.13;;
35917;SDS011;22011;59.912;30.300;2022-12-07T12:39:25;6.93;;;3.97;;
35917;SDS011;22011;59.912;30.300;2022-12-07T12:41:58;11.88;;;3.78;;
35917;SDS011;22011;59.912;30.300;2022-12-07T12:50:15;10.90;;;4.35;;
35917;SDS011;22011;59.912;30.300;2022-12-07T12:58:40;9.65;;;3.65;;
35917;SDS011;22011;59.912;30.300;2022-12-07T13:04:29;17.65;;;6.32;;
35917;SDS011;22011;59.912;30.300;2022-12-07T13:07:10;12.38;;;4.10;;
35917;SDS011;22011;59.912;30.300;2022-12-07T13:09:42;17.63;;;4.55;;
35917;SDS011;22011;59.912;30.300;2022-12-07T13:12:12;10.93;;;4.53;;
35917;SDS011;22011;59.912;30.300;2022-12-07T13:14:42;12.90;;;4.15;;
35917;SDS011;22011;59.912;30.300;2022-12-07T13:23:20;15.82;;;4.35;;
35917;SDS011;22011;59.912;30.300;2022-12-07T13:26:01;22.30;;;4.90;;
35917;SDS011;22011;59.912;30.300;2022-12-07T13:28:36;10.48;;;5.22;;
35917;SDS011;22011;59.912;30.300;2022-12-07T13:31:11;16.52;;;4.03;;
35917;SDS011;22011;59.912;30.300;2022-12-07T13:33:42;16.35;;;4.35;;
35917;SDS011;22011;59.912;30.300;2022-12-07T13:36:14;20.88;;;4.90;;
35917;SDS011;22011;59.912;30.300;2022-12-07T13:38:52;14.63;;;4.85;;
35917;SDS011;22011;59.912;30.300;2022-12-07T13:41:22;16.33;;;5.18;;
35917;SDS011;22011;59.912;30.300;2022-12-07T13:43:52;15.48;;;4.95;;
35917;SDS011;22011;59.912;30.300;2022-12-07T13:46:26;10.10;;;4.32;;
35917;SDS011;22011;59.912;30.300;2022-12-07T13:49:02;11.18;;;4.75;;
35917;SDS011;22011;59.912;30.300;2022-12-07T13:51:33;12.23;;;4.15;;
35917;SDS011;22011;59.912;30.300;2022-12-07T13:54:09;9.63;;;4.25;;
35917;SDS011;22011;59.912;30.300;2022-12-07T13:56:38;9.35;;;4.32;;
35917;SDS011;22011;59.912;30.300;2022-12-07T13:59:10;6.97;;;4.20;;
35917;SDS011;22011;59.912;30.300;2022-12-07T14:01:42;10.63;;;4.25;;
35917;SDS011;22011;59.912;30.300;2022-12-07T14:04:24;17.88;;;4.97;;
35917;SDS011;22011;59.912;30.300;2022-12-07T14:06:57;8.90;;;4.80;;
35917;SDS011;22011;59.912;30.300;2022-12-07T14:09:28;11.75;;;4.47;;
35917;SDS011;22011;59.912;30.300;2022-12-07T14:11:56;8.55;;;4.15;;
35917;SDS011;22011;59.912;30.300;2022-12-07T14:14:25;9.48;;;5.45;;
35917;SDS011;22011;59.912;30.300;2022-12-07T14:16:56;11.43;;;5.55;;
35917;SDS011;22011;59.912;30.300;2022-12-07T14:19:43;15.38;;;5.47;;
35917;SDS011;22011;59.912;30.300;2022-12-07T14:25:09;15.90;;;6.30;;
35917;SDS011;22011;59.912;30.300;2022-12-07T14:27:51;15.27;;;6.07;;
35917;SDS011;22011;59.912;30.300;2022-12-07T14:30:22;16.60;;;5.72;;
35917;SDS011;22011;59.912;30.300;2022-12-07T14:32:53;23.88;;;5.97;;
35917;SDS011;22011;59.912;30.300;2022-12-07T14:35:22;17.00;;;6.07;;
35917;SDS011;22011;59.912;30.300;2022-12-07T14:37:49;17.67;;;6.07;;
35917;SDS011;22011;59.912;30.300;2022-12-07T14:40:20;24.13;;;6.50;;
35917;SDS011;22011;59.912;30.300;2022-12-07T14:42:50;14.05;;;5.10;;
35917;SDS011;22011;59.912;30.300;2022-12-07T14:45:21;10.90;;;4.88;;
35917;SDS011;22011;59.912;30.300;2022-12-07T14:47:49;11.23;;;4.70;;
35917;SDS011;22011;59.912;30.300;2022-12-07T14:50:18;10.23;;;5.00;;
35917;SDS011;22011;59.912;30.300;2022-12-07T14:52:48;9.27;;;5.30;;
35917;SDS011;22011;59.912;30.300;2022-12-07T14:55:22;17.08;;;4.88;;
35917;SDS011;22011;59.912;30.300;2022-12-07T14:57:52;8.82;;;4.82;;
35917;SDS011;22011;59.912;30.300;2022-12-07T15:00:20;10.57;;;4.65;;
35917;SDS011;22011;59.912;30.300;2022-12-07T15:02:49;11.77;;;5.35;;
35917;SDS011;22011;59.912;30.300;2022-12-07T15:05:17;17.65;;;5.72;;
35917;SDS011;22011;59.912;30.300;2022-12-07T15:07:46;9.13;;;5.13;;
35917;SDS011;22011;59.912;30.300;2022-12-07T15:10:16;10.05;;;4.88;;
35917;SDS011;22011;59.912;30.300;2022-12-07T15:12:46;13.38;;;4.95;;
35917;SDS011;22011;59.912;30.300;2022-12-07T15:15:14;14.43;;;5.30;;
35917;SDS011;22011;59.912;30.300;2022-12-07T15:17:42;10.13;;;5.47;;
35917;SDS011;22011;59.912;30.300;2022-12-07T15:20:11;8.27;;;5.38;;
35917;SDS011;22011;59.912;30.300;2022-12-07T15:22:40;11.65;;;5.13;;
35917;SDS011;22011;59.912;30.300;2022-12-07T15:25:08;15.20;;;4.93;;